Time;durP1;ratioP1;P1;durP2;ratioP2;P2;SDS_P1;SDS_P2;PMS_P1;PMS_P2;Temp;Humidity;BMP_temperature;BMP_pressure;BME280_temperature;BME280_humidity;BME280_pressure;Samples;Min_cycle;Max_cycle;Signal;HPM_P1;HPM_P2
2023/09/22 00:00:04;;;;;;;2.80;0.70;;;15.00;99.90;;;;;;5048670;28;20562;-72
2023/09/22 00:02:30;;;;;;;1.10;0.83;;;15.00;99.90;;;;;;5047128;28;20182;-72
2023/09/22 00:04:57;;;;;;;1.93;0.80;;;15.10;99.90;;;;;;5030834;28;20437;-71
2023/09/22 00:07:22;;;;;;;1.33;1.00;;;15.00;99.90;;;;;;5048954;28;20416;-72
2023/09/22 00:09:49;;;;;;;1.30;0.80;;;15.00;99.90;;;;;;5048882;28;20432;-73
2023/09/22 00:12:15;;;;;;;1.00;0.60;;;15.00;99.90;;;;;;5030768;28;20193;-72
2023/09/22 00:14:41;;;;;;;1.33;0.80;;;15.00;99.90;;;;;;5048551;28;20970;-72
2023/09/22 00:17:06;;;;;;;3.63;0.83;;;15.00;99.90;;;;;;5048322;28;20231;-72
2023/09/22 00:19:32;;;;;;;1.10;1.00;;;15.00;99.90;;;;;;5048667;28;20217;-71
2023/09/22 00:21:58;;;;;;;1.23;0.77;;;15.00;99.90;;;;;;5049158;28;20188;-72
2023/09/22 00:24:23;;;;;;;1.23;0.90;;;14.90;99.90;;;;;;5049176;28;20196;-72
2023/09/22 00:26:49;;;;;;;1.80;1.00;;;14.90;99.90;;;;;;5047769;28;20424;-72
2023/09/22 00:29:15;;;;;;;1.23;0.80;;;14.90;99.90;;;;;;5049095;28;20196;-72
2023/09/22 00:31:41;;;;;;;3.50;1.03;;;14.90;99.90;;;;;;5048971;28;20425;-72
2023/09/22 00:34:08;;;;;;;1.30;0.90;;;14.80;99.90;;;;;;5047446;28;20209;-72
2023/09/22 00:36:33;;;;;;;0.90;0.60;;;14.80;99.90;;;;;;5047423;28;20181;-72
2023/09/22 00:39:00;;;;;;;1.20;0.73;;;14.70;99.90;;;;;;5047076;28;20536;-73
2023/09/22 00:41:26;;;;;;;1.20;0.57;;;14.70;99.90;;;;;;5048482;28;20207;-72
2023/09/22 00:43:51;;;;;;;2.10;0.80;;;14.70;99.90;;;;;;5048229;28;20477;-72
2023/09/22 00:46:22;;;;;;;1.27;0.70;;;14.60;99.90;;;;;;5046670;28;20446;-73
2023/09/22 00:48:48;;;;;;;1.10;0.70;;;14.50;99.90;;;;;;5048102;28;20192;-72
2023/09/22 00:51:18;;;;;;;1.30;0.90;;;14.50;99.90;;;;;;5048174;28;20513;-72
2023/09/22 00:53:43;;;;;;;0.90;0.60;;;14.50;99.90;;;;;;5047995;28;20841;-72
2023/09/22 00:56:09;;;;;;;2.13;0.70;;;14.40;99.90;;;;;;5046706;28;20439;-72
2023/09/22 00:58:36;;;;;;;1.83;0.63;;;14.40;99.90;;;;;;5046727;28;20226;-72
2023/09/22 01:01:02;;;;;;;2.13;0.90;;;14.40;99.90;;;;;;5047950;28;20426;-72
2023/09/22 01:03:29;;;;;;;1.20;0.90;;;14.40;99.90;;;;;;5046573;28;20752;-73
2023/09/22 01:05:55;;;;;;;1.77;0.80;;;14.40;99.90;;;;;;5047983;28;20854;-72
2023/09/22 01:08:21;;;;;;;2.27;0.80;;;14.30;99.90;;;;;;5047754;28;21216;-72
2023/09/22 01:10:46;;;;;;;1.10;0.60;;;14.20;99.90;;;;;;5047962;28;20432;-72
2023/09/22 01:13:13;;;;;;;1.67;0.93;;;14.10;99.90;;;;;;5046514;28;20227;-72
2023/09/22 01:15:43;;;;;;;3.17;1.00;;;14.20;99.90;;;;;;5046233;28;20266;-72
2023/09/22 01:18:10;;;;;;;1.07;0.67;;;14.20;99.90;;;;;;5047902;28;20444;-72
2023/09/22 01:20:42;;;;;;;1.40;0.90;;;14.10;99.90;;;;;;5047877;28;20465;-72
2023/09/22 01:23:08;;;;;;;2.43;0.60;;;14.00;99.90;;;;;;5046691;28;20422;-73
2023/09/22 01:25:33;;;;;;;1.97;0.90;;;14.00;99.90;;;;;;5047717;28;20440;-73
2023/09/22 01:27:59;;;;;;;1.00;0.80;;;14.00;99.90;;;;;;5046120;28;20521;-73
2023/09/22 01:30:25;;;;;;;1.63;0.77;;;14.00;99.90;;;;;;5049526;28;20195;-72
2023/09/22 01:32:50;;;;;;;1.37;0.70;;;14.00;99.90;;;;;;5051535;28;20180;-72
2023/09/22 01:35:16;;;;;;;3.83;1.00;;;14.00;99.90;;;;;;5049963;28;20233;-72
2023/09/22 01:37:51;;;;;;;2.90;0.90;;;13.90;99.90;;;;;;5051328;28;20191;-72
2023/09/22 01:40:17;;;;;;;1.27;0.80;;;13.90;99.90;;;;;;5051090;28;20215;-72
2023/09/22 01:42:43;;;;;;;2.03;0.80;;;13.90;99.90;;;;;;5051165;28;20932;-73
2023/09/22 01:45:10;;;;;;;2.37;0.80;;;13.90;99.90;;;;;;5050924;28;20222;-72
2023/09/22 01:47:36;;;;;;;1.43;0.70;;;13.90;99.90;;;;;;5050927;28;20847;-72
2023/09/22 01:50:02;;;;;;;2.60;0.80;;;13.90;99.90;;;;;;5049352;28;20450;-72
2023/09/22 01:52:28;;;;;;;1.60;0.60;;;14.00;99.90;;;;;;5049345;28;20427;-72
2023/09/22 01:54:54;;;;;;;1.30;0.73;;;13.90;99.90;;;;;;5048950;28;20480;-73
2023/09/22 01:57:20;;;;;;;1.30;0.83;;;13.90;99.90;;;;;;5050558;28;20206;-72
2023/09/22 01:59:45;;;;;;;2.83;1.10;;;14.00;99.90;;;;;;5050566;28;20471;-72
2023/09/22 02:02:11;;;;;;;1.20;0.70;;;13.90;99.90;;;;;;5050669;28;20262;-73
2023/09/22 02:04:36;;;;;;;1.00;0.60;;;13.80;99.90;;;;;;5049180;28;20223;-73
2023/09/22 02:07:03;;;;;;;2.03;0.90;;;13.90;99.90;;;;;;5050751;28;20664;-72
2023/09/22 02:09:28;;;;;;;1.00;0.70;;;13.70;99.90;;;;;;5050534;28;20179;-72
2023/09/22 02:11:54;;;;;;;1.50;0.80;;;13.80;99.90;;;;;;5032356;28;20855;-72
2023/09/22 02:14:19;;;;;;;1.57;0.70;;;13.80;99.90;;;;;;5049345;28;20200;-72
2023/09/22 02:16:45;;;;;;;1.43;0.80;;;13.80;99.90;;;;;;5050626;28;20237;-72
2023/09/22 02:22:33;;;;;;;1.00;0.70;;;13.80;99.90;;;;;;5050524;28;20163;-72
2023/09/22 02:24:59;;;;;;;4.60;0.90;;;13.80;99.90;;;;;;5048946;28;20474;-73
2023/09/22 02:27:24;;;;;;;2.33;0.77;;;13.70;99.90;;;;;;5050636;28;20453;-73
2023/09/22 02:29:50;;;;;;;1.90;1.30;;;13.70;99.90;;;;;;5050565;28;20600;-73
2023/09/22 02:32:15;;;;;;;2.60;0.70;;;13.70;99.90;;;;;;5050463;28;20190;-73
2023/09/22 02:34:41;;;;;;;10.87;0.80;;;13.70;99.90;;;;;;5049157;28;20210;-72
2023/09/22 02:37:07;;;;;;;1.43;0.80;;;13.70;99.90;;;;;;5049257;28;20191;-72
2023/09/22 02:39:32;;;;;;;0.90;0.57;;;13.70;99.90;;;;;;5049184;28;20261;-73
2023/09/22 02:41:58;;;;;;;3.20;0.90;;;13.60;99.90;;;;;;5050054;28;20916;-73
2023/09/22 02:44:23;;;;;;;2.33;0.80;;;13.60;99.90;;;;;;5050826;28;20221;-73
2023/09/22 02:46:49;;;;;;;1.37;0.60;;;13.70;99.90;;;;;;5050660;28;20192;-73
2023/09/22 02:49:14;;;;;;;1.37;0.73;;;13.80;99.90;;;;;;5050560;28;20250;-73
2023/09/22 02:51:40;;;;;;;2.33;0.97;;;13.90;99.90;;;;;;5049443;28;20218;-73
2023/09/22 02:54:06;;;;;;;1.30;1.03;;;13.90;99.90;;;;;;5050682;28;20340;-73
2023/09/22 02:56:32;;;;;;;1.10;0.70;;;14.00;99.90;;;;;;5050697;28;20275;-73
2023/09/22 02:58:58;;;;;;;1.00;0.60;;;13.90;99.90;;;;;;5049427;28;20546;-73
2023/09/22 03:01:24;;;;;;;1.33;0.80;;;13.90;99.90;;;;;;5032730;28;20422;-73
2023/09/22 03:03:50;;;;;;;1.10;0.70;;;13.90;99.90;;;;;;5048985;28;20202;-73
2023/09/22 03:06:18;;;;;;;1.30;0.87;;;13.90;99.90;;;;;;5050622;28;20500;-72
2023/09/22 03:08:44;;;;;;;0.97;0.70;;;13.80;99.90;;;;;;5048878;28;20482;-72
2023/09/22 03:11:09;;;;;;;1.97;0.80;;;13.90;99.90;;;;;;5048564;28;20430;-73
2023/09/22 03:13:35;;;;;;;1.20;0.70;;;13.80;99.90;;;;;;5048368;28;20195;-72
2023/09/22 03:16:00;;;;;;;1.07;0.60;;;13.80;99.90;;;;;;5048524;28;20184;-73
2023/09/22 03:18:27;;;;;;;1.30;0.60;;;13.80;99.90;;;;;;5050052;28;20282;-73
2023/09/22 03:20:52;;;;;;;1.90;0.70;;;13.80;99.90;;;;;;5049871;28;20934;-72
2023/09/22 03:23:18;;;;;;;3.93;1.07;;;13.80;99.90;;;;;;5049790;28;20410;-72
2023/09/22 03:25:44;;;;;;;1.43;0.77;;;13.80;99.90;;;;;;5048180;28;20199;-72
2023/09/22 03:28:10;;;;;;;1.00;0.70;;;13.80;99.90;;;;;;5049451;28;20184;-72
2023/09/22 03:30:36;;;;;;;1.57;0.90;;;13.80;99.90;;;;;;5049401;28;20830;-72
2023/09/22 03:33:01;;;;;;;1.90;0.97;;;13.80;99.90;;;;;;5049316;28;20272;-72
2023/09/22 03:35:27;;;;;;;1.20;0.70;;;13.80;99.90;;;;;;5049243;28;20223;-72
2023/09/22 03:37:55;;;;;;;1.77;0.80;;;13.80;99.90;;;;;;5049257;28;20176;-71
2023/09/22 03:40:32;;;;;;;3.37;0.70;;;13.90;99.90;;;;;;5049247;28;20809;-71
2023/09/22 03:42:59;;;;;;;1.00;0.70;;;13.90;99.90;;;;;;5032711;28;20456;-72
2023/09/22 03:45:25;;;;;;;4.30;1.20;;;13.90;99.90;;;;;;5049074;28;20430;-72
2023/09/22 03:47:50;;;;;;;2.23;0.97;;;13.90;99.90;;;;;;5049150;28;21088;-72
2023/09/22 03:50:17;;;;;;;4.77;0.70;;;13.90;99.90;;;;;;5047505;28;20187;-72
2023/09/22 03:52:43;;;;;;;2.80;0.60;;;13.90;99.90;;;;;;5047216;28;20852;-73
2023/09/22 03:55:10;;;;;;;3.63;0.83;;;13.90;99.90;;;;;;5048981;28;20439;-72
2023/09/22 03:57:35;;;;;;;2.67;0.63;;;13.90;99.90;;;;;;5048800;28;20273;-72
2023/09/22 04:00:01;;;;;;;4.00;0.80;;;13.90;99.90;;;;;;5048792;28;20976;-72
2023/09/22 04:02:27;;;;;;;2.03;0.80;;;13.90;99.90;;;;;;5049128;28;20182;-72
2023/09/22 04:04:54;;;;;;;1.20;0.70;;;13.90;99.90;;;;;;5049222;28;20265;-72
2023/09/22 04:07:19;;;;;;;1.53;0.90;;;13.90;99.90;;;;;;5048673;28;20175;-72
2023/09/22 04:09:45;;;;;;;1.60;1.10;;;13.80;99.90;;;;;;5048579;28;20786;-71
2023/09/22 04:12:11;;;;;;;1.53;0.60;;;13.90;99.90;;;;;;5030874;28;20184;-71
2023/09/22 04:14:37;;;;;;;7.43;0.90;;;13.80;99.90;;;;;;5048678;28;20239;-71
2023/09/22 04:17:03;;;;;;;1.10;0.77;;;13.80;99.90;;;;;;5048729;28;20414;-71
2023/09/22 04:19:33;;;;;;;1.70;0.80;;;13.80;99.90;;;;;;5048507;28;20207;-72
2023/09/22 04:21:59;;;;;;;1.20;0.57;;;13.80;99.90;;;;;;5030965;28;20418;-70
2023/09/22 04:24:31;;;;;;;2.30;0.90;;;13.90;99.90;;;;;;5048202;28;20827;-70
2023/09/22 04:27:00;;;;;;;3.27;1.00;;;13.80;99.90;;;;;;5046762;28;20446;-71
2023/09/22 04:29:27;;;;;;;2.53;0.70;;;13.80;99.90;;;;;;5048135;28;20505;-71
2023/09/22 04:31:52;;;;;;;1.27;0.73;;;13.90;99.90;;;;;;5047781;28;20916;-71
2023/09/22 04:34:19;;;;;;;0.90;0.67;;;14.00;99.90;;;;;;5046237;28;20579;-72
2023/09/22 04:36:46;;;;;;;1.43;0.70;;;13.90;99.90;;;;;;5047729;28;20184;-71
2023/09/22 04:39:14;;;;;;;1.20;0.70;;;13.90;99.90;;;;;;5046097;28;20988;-72
2023/09/22 04:41:40;;;;;;;1.60;0.83;;;13.90;99.90;;;;;;5047699;28;20509;-72
2023/09/22 04:44:06;;;;;;;2.50;0.67;;;13.80;99.90;;;;;;5046081;28;20434;-72
2023/09/22 04:46:33;;;;;;;1.07;0.70;;;13.80;99.90;;;;;;5047463;28;20557;-72
2023/09/22 04:48:59;;;;;;;1.00;0.70;;;13.80;99.90;;;;;;5047417;28;20414;-72
2023/09/22 04:51:27;;;;;;;2.13;0.70;;;13.90;99.90;;;;;;5047647;28;20464;-71
2023/09/22 04:53:53;;;;;;;2.70;0.80;;;13.80;99.90;;;;;;5047184;28;20210;-71
2023/09/22 04:56:20;;;;;;;2.47;0.60;;;13.80;99.90;;;;;;5046819;28;20446;-71
2023/09/22 04:58:47;;;;;;;3.07;1.10;;;13.80;99.90;;;;;;5046902;28;20560;-71
2023/09/22 05:01:14;;;;;;;0.73;0.43;;;13.80;99.90;;;;;;5045497;28;20446;-71
2023/09/22 05:03:40;;;;;;;2.40;0.53;;;13.80;99.90;;;;;;5045688;28;20422;-71
2023/09/22 05:06:09;;;;;;;1.67;0.70;;;13.80;99.90;;;;;;5049317;28;20414;-71
2023/09/22 05:08:37;;;;;;;1.20;0.70;;;13.70;99.90;;;;;;5049121;28;20415;-71
2023/09/22 05:11:07;;;;;;;1.83;0.70;;;13.70;99.90;;;;;;5050447;28;20883;-71
2023/09/22 05:13:34;;;;;;;0.90;0.70;;;13.70;99.90;;;;;;5048917;28;20429;-71
2023/09/22 05:16:09;;;;;;;1.10;0.60;;;13.70;99.90;;;;;;5050289;28;20423;-71
2023/09/22 05:18:35;;;;;;;1.73;0.80;;;13.70;99.90;;;;;;5048758;28;20422;-71
2023/09/22 05:21:01;;;;;;;1.40;0.60;;;13.70;99.90;;;;;;5032153;28;20472;-70
2023/09/22 05:23:32;;;;;;;1.83;0.70;;;13.70;99.90;;;;;;5050112;28;20487;-71
2023/09/22 05:26:07;;;;;;;2.03;0.90;;;13.70;99.90;;;;;;5050243;28;20266;-71
2023/09/22 05:28:32;;;;;;;1.00;0.60;;;13.80;99.90;;;;;;5048726;28;20429;-71
2023/09/22 05:30:59;;;;;;;1.73;1.07;;;13.80;99.90;;;;;;5048517;28;20543;-71
2023/09/22 05:33:24;;;;;;;1.80;1.10;;;13.90;99.90;;;;;;5048665;28;20191;-71
2023/09/22 05:35:50;;;;;;;1.37;0.80;;;13.90;99.90;;;;;;5050034;28;20446;-72
2023/09/22 05:38:16;;;;;;;0.90;0.60;;;13.90;99.90;;;;;;5049920;28;20219;-72
2023/09/22 05:40:43;;;;;;;1.10;0.70;;;13.90;99.90;;;;;;5050094;28;20212;-72
2023/09/22 05:43:12;;;;;;;1.00;0.67;;;13.90;99.90;;;;;;5048575;28;20429;-71
2023/09/22 05:45:38;;;;;;;1.40;0.80;;;13.90;99.90;;;;;;5048320;28;20453;-71
2023/09/22 05:48:04;;;;;;;1.10;0.80;;;14.00;99.90;;;;;;5049690;28;20422;-71
2023/09/22 05:50:30;;;;;;;2.53;0.80;;;14.00;99.90;;;;;;5049711;28;20216;-71
2023/09/22 05:52:55;;;;;;;1.47;0.73;;;14.10;99.90;;;;;;5050451;28;20525;-72
2023/09/22 05:55:22;;;;;;;1.77;0.80;;;14.10;99.90;;;;;;5049606;28;20304;-72
2023/09/22 05:57:48;;;;;;;2.20;0.67;;;14.20;99.90;;;;;;5050994;28;20204;-72
2023/09/22 06:00:17;;;;;;;1.90;0.80;;;14.20;99.90;;;;;;5049332;28;20860;-71
2023/09/22 06:02:50;;;;;;;3.07;0.80;;;14.20;99.90;;;;;;5051813;28;20614;-71
2023/09/22 06:05:22;;;;;;;1.93;1.07;;;14.20;99.90;;;;;;5052201;28;20443;-70
2023/09/22 06:07:48;;;;;;;2.60;0.70;;;14.20;99.90;;;;;;5052442;28;20921;-70
2023/09/22 06:10:14;;;;;;;1.00;0.60;;;14.30;99.90;;;;;;5052271;28;20448;-70
2023/09/22 06:12:39;;;;;;;3.83;0.93;;;14.30;99.90;;;;;;5052213;28;20418;-70
2023/09/22 06:15:07;;;;;;;1.00;0.70;;;14.30;99.90;;;;;;5050157;28;20306;-70
2023/09/22 06:17:33;;;;;;;2.50;0.80;;;14.30;99.90;;;;;;5051916;28;20184;-70
2023/09/22 06:19:59;;;;;;;1.37;0.70;;;14.40;99.90;;;;;;5052080;28;20468;-70
2023/09/22 06:22:25;;;;;;;1.00;0.80;;;14.40;99.90;;;;;;5052032;28;20491;-70
2023/09/22 06:24:51;;;;;;;1.53;0.93;;;14.40;99.90;;;;;;5034437;28;20551;-70
2023/09/22 06:27:17;;;;;;;1.57;0.60;;;14.40;99.90;;;;;;5052101;28;20905;-70
2023/09/22 06:29:43;;;;;;;1.53;0.70;;;14.40;99.90;;;;;;5052520;28;20509;-70
2023/09/22 06:32:08;;;;;;;1.57;0.80;;;14.40;99.90;;;;;;5051957;28;20188;-70
2023/09/22 06:34:34;;;;;;;1.17;0.80;;;14.50;99.90;;;;;;5034093;28;20222;-71
2023/09/22 06:37:00;;;;;;;2.23;0.80;;;14.50;99.90;;;;;;5052921;28;20188;-71
2023/09/22 06:39:25;;;;;;;1.30;0.60;;;14.50;99.90;;;;;;5053228;28;20540;-71
2023/09/22 06:41:51;;;;;;;0.80;0.50;;;14.60;99.90;;;;;;5051870;28;20230;-71
2023/09/22 06:44:16;;;;;;;2.00;1.07;;;14.60;99.90;;;;;;5052812;28;20682;-70
2023/09/22 06:46:42;;;;;;;2.10;0.80;;;14.60;99.90;;;;;;5053010;28;20185;-71
2023/09/22 06:49:08;;;;;;;2.73;0.90;;;14.50;99.90;;;;;;5051635;28;20198;-71
2023/09/22 06:51:36;;;;;;;2.87;0.70;;;14.50;99.90;;;;;;5051516;28;20249;-71
2023/09/22 06:54:03;;;;;;;4.23;1.00;;;14.50;99.90;;;;;;5052771;28;20198;-72
2023/09/22 06:56:28;;;;;;;1.13;0.90;;;14.50;99.90;;;;;;5052638;28;20547;-71
2023/09/22 06:58:54;;;;;;;5.73;0.80;;;14.50;99.90;;;;;;5034655;28;20470;-71
2023/09/22 07:01:20;;;;;;;1.23;0.80;;;14.50;99.90;;;;;;5052696;28;20198;-71
2023/09/22 07:03:46;;;;;;;1.00;0.70;;;14.50;99.90;;;;;;5034571;28;20215;-70
2023/09/22 07:06:14;;;;;;;1.40;0.80;;;14.60;99.90;;;;;;5051337;28;20175;-70
2023/09/22 07:08:41;;;;;;;1.43;0.70;;;14.60;99.90;;;;;;5052519;28;20446;-70
2023/09/22 07:11:08;;;;;;;2.60;0.80;;;14.60;99.90;;;;;;5052501;28;20432;-70
2023/09/22 07:13:35;;;;;;;1.97;0.70;;;14.60;99.90;;;;;;5050862;28;20468;-70
2023/09/22 07:16:00;;;;;;;2.10;0.90;;;14.60;99.90;;;;;;5052442;28;20934;-71
2023/09/22 07:18:26;;;;;;;1.10;0.60;;;14.70;99.90;;;;;;5052348;28;20513;-71
2023/09/22 07:20:53;;;;;;;1.97;0.90;;;14.70;99.90;;;;;;5052275;28;20216;-71
2023/09/22 07:23:20;;;;;;;1.00;0.53;;;14.80;99.90;;;;;;5050915;28;20449;-71
2023/09/22 07:25:56;;;;;;;1.30;0.70;;;14.90;99.90;;;;;;5052199;28;20532;-71
2023/09/22 07:28:22;;;;;;;1.40;0.90;;;14.90;99.90;;;;;;5052041;28;20406;-71
2023/09/22 07:30:47;;;;;;;2.40;0.80;;;15.00;99.90;;;;;;5052121;28;20423;-71
2023/09/22 07:33:13;;;;;;;1.87;1.07;;;15.10;99.90;;;;;;5052064;28;20275;-71
2023/09/22 07:35:38;;;;;;;1.67;0.80;;;15.10;99.90;;;;;;5050680;28;20208;-71
2023/09/22 07:38:04;;;;;;;3.03;0.80;;;15.10;99.90;;;;;;5051967;28;20188;-71
2023/09/22 07:40:30;;;;;;;2.37;0.70;;;15.20;99.90;;;;;;5051869;28;20648;-71
2023/09/22 07:42:55;;;;;;;0.90;0.70;;;15.10;99.90;;;;;;5052022;28;20184;-71
2023/09/22 07:45:21;;;;;;;2.00;0.93;;;15.10;99.90;;;;;;5051802;28;20226;-70
2023/09/22 07:47:47;;;;;;;2.33;0.67;;;15.00;99.90;;;;;;5052383;28;20179;-72
2023/09/22 07:50:15;;;;;;;1.23;0.60;;;15.00;99.90;;;;;;5050577;28;20180;-71
2023/09/22 07:52:43;;;;;;;1.53;0.70;;;15.00;99.90;;;;;;5051846;28;20804;-71
2023/09/22 07:55:14;;;;;;;1.80;0.70;;;15.10;99.90;;;;;;5051623;28;20452;-71
2023/09/22 07:57:40;;;;;;;1.03;0.70;;;15.10;99.90;;;;;;5051613;28;20970;-71
2023/09/22 08:00:10;;;;;;;1.07;0.60;;;15.10;99.90;;;;;;5051573;28;20468;-70
2023/09/22 08:02:36;;;;;;;1.00;0.80;;;15.10;99.90;;;;;;5051598;28;20496;-70
2023/09/22 08:05:01;;;;;;;3.10;0.87;;;15.20;99.90;;;;;;5051534;28;20819;-70
2023/09/22 08:07:27;;;;;;;1.10;0.70;;;15.20;99.90;;;;;;5051529;28;20424;-70
2023/09/22 08:09:53;;;;;;;1.50;0.80;;;15.10;99.90;;;;;;5051553;28;20213;-70
2023/09/22 08:12:19;;;;;;;1.13;0.80;;;15.20;99.90;;;;;;5051486;28;20191;-70
2023/09/22 08:14:45;;;;;;;2.03;1.10;;;15.30;99.90;;;;;;5049981;28;20216;-70
2023/09/22 08:17:10;;;;;;;1.00;0.70;;;15.20;99.90;;;;;;5051431;28;20318;-70
2023/09/22 08:19:36;;;;;;;2.83;1.10;;;15.20;99.90;;;;;;5051249;28;20551;-71
2023/09/22 08:22:02;;;;;;;2.83;0.90;;;15.10;99.90;;;;;;5051472;28;20552;-71
2023/09/22 08:24:28;;;;;;;1.47;1.00;;;15.10;99.90;;;;;;5051266;28;20204;-71
2023/09/22 08:26:55;;;;;;;2.43;1.10;;;15.10;99.90;;;;;;5049856;28;20427;-71
2023/09/22 08:29:22;;;;;;;1.00;0.90;;;15.10;99.90;;;;;;5051288;28;20193;-71
2023/09/22 08:31:48;;;;;;;1.93;0.77;;;15.20;99.90;;;;;;5049989;28;21001;-70
2023/09/22 08:34:14;;;;;;;2.70;0.80;;;15.20;99.90;;;;;;5051128;28;20811;-71
2023/09/22 08:36:40;;;;;;;1.10;0.70;;;15.30;99.90;;;;;;5049915;28;20427;-70
2023/09/22 08:39:07;;;;;;;1.20;0.80;;;15.40;99.90;;;;;;5051234;28;20431;-70
2023/09/22 08:41:37;;;;;;;2.20;0.90;;;15.40;99.90;;;;;;5054121;28;20676;-71
2023/09/22 08:44:04;;;;;;;3.07;0.80;;;15.60;99.90;;;;;;5053979;28;20437;-70
2023/09/22 08:46:33;;;;;;;1.23;0.80;;;15.50;99.90;;;;;;5053980;28;20435;-70
2023/09/22 08:48:58;;;;;;;3.03;0.90;;;15.70;99.90;;;;;;5055248;28;20499;-70
2023/09/22 08:51:24;;;;;;;1.10;0.60;;;15.60;99.90;;;;;;5053770;28;20517;-71
2023/09/22 08:53:53;;;;;;;1.67;0.97;;;15.70;99.90;;;;;;5055009;28;20205;-70
2023/09/22 08:56:21;;;;;;;2.43;0.83;;;15.80;99.90;;;;;;5037439;28;20455;-70
2023/09/22 08:58:47;;;;;;;1.10;0.67;;;15.80;99.90;;;;;;5053676;28;20463;-70
2023/09/22 09:01:12;;;;;;;0.97;0.50;;;15.80;99.90;;;;;;5053652;28;20502;-71
2023/09/22 09:03:39;;;;;;;0.80;0.60;;;15.70;99.90;;;;;;5054895;28;20250;-70
2023/09/22 09:06:09;;;;;;;2.83;0.90;;;15.80;99.90;;;;;;5054932;28;20188;-71
2023/09/22 09:08:35;;;;;;;1.90;0.60;;;15.70;99.90;;;;;;5037273;28;20426;-71
2023/09/22 09:11:07;;;;;;;0.93;0.57;;;15.60;99.90;;;;;;5053429;28;20441;-70
2023/09/22 09:13:34;;;;;;;1.20;0.70;;;15.70;99.90;;;;;;5054871;28;20786;-70
2023/09/22 09:16:06;;;;;;;4.00;0.50;;;15.70;99.90;;;;;;5054943;28;20427;-70
2023/09/22 09:18:32;;;;;;;1.00;0.70;;;15.60;99.90;;;;;;5054793;28;20409;-71
2023/09/22 09:21:09;;;;;;;2.20;0.50;;;15.60;99.90;;;;;;5054583;28;20953;-70
2023/09/22 09:23:36;;;;;;;1.30;0.70;;;15.60;99.90;;;;;;5054510;28;20430;-70
2023/09/22 09:26:02;;;;;;;1.00;0.60;;;15.60;99.90;;;;;;5053239;28;20437;-70
2023/09/22 09:28:29;;;;;;;0.70;0.40;;;15.60;99.90;;;;;;5054665;28;20425;-71
2023/09/22 09:30:56;;;;;;;0.80;0.50;;;15.60;99.90;;;;;;5054438;28;20422;-70
2023/09/22 09:33:26;;;;;;;1.07;0.50;;;15.50;99.90;;;;;;5054407;28;20442;-70
2023/09/22 09:35:54;;;;;;;0.80;0.50;;;15.40;99.90;;;;;;5052968;28;20451;-71
2023/09/22 09:38:24;;;;;;;1.00;0.50;;;15.50;99.90;;;;;;5054336;28;20433;-70
2023/09/22 09:40:51;;;;;;;0.80;0.50;;;15.50;99.90;;;;;;5054222;28;20851;-71
2023/09/22 09:43:16;;;;;;;1.23;0.70;;;15.50;99.90;;;;;;5054210;28;20605;-71
2023/09/22 09:45:47;;;;;;;1.00;0.53;;;15.40;99.90;;;;;;5054107;28;20536;-71
2023/09/22 09:48:16;;;;;;;1.87;0.80;;;15.60;99.90;;;;;;5054138;28;20173;-71
2023/09/22 09:50:45;;;;;;;5.23;0.60;;;15.60;99.90;;;;;;5052922;28;20429;-71
2023/09/22 09:53:36;;;;;;;2.03;0.90;;;15.60;99.90;;;;;;5053904;28;20424;-70
2023/09/22 09:56:03;;;;;;;0.90;0.60;;;15.50;99.90;;;;;;5053846;28;20534;-71
2023/09/22 09:58:34;;;;;;;1.57;0.60;;;15.50;99.90;;;;;;5053972;28;20420;-71
2023/09/22 10:01:07;;;;;;;1.00;0.50;;;15.60;99.90;;;;;;5053893;28;20480;-71
2023/09/22 10:03:36;;;;;;;1.03;0.60;;;15.70;99.90;;;;;;5053837;28;20414;-70
2023/09/22 10:06:04;;;;;;;1.30;0.50;;;15.80;99.90;;;;;;5053814;28;20411;-71
2023/09/22 10:08:30;;;;;;;1.23;0.80;;;15.80;99.90;;;;;;5053745;28;20423;-71
2023/09/22 10:11:01;;;;;;;5.17;0.80;;;15.80;99.90;;;;;;5053640;28;20419;-71
2023/09/22 10:13:27;;;;;;;1.00;0.60;;;15.80;99.90;;;;;;5052281;28;20454;-71
2023/09/22 10:16:01;;;;;;;2.07;0.70;;;15.70;99.90;;;;;;5053567;28;20439;-70
2023/09/22 10:18:49;;;;;;;0.80;0.70;;;15.70;99.90;;;;;;5053751;28;20785;-71
2023/09/22 10:21:33;;;;;;;2.80;0.60;;;15.80;99.90;;;;;;5053347;28;20462;-70
2023/09/22 10:24:14;;;;;;;1.03;0.60;;;15.90;99.90;;;;;;5053355;28;20812;-71
2023/09/22 10:27:06;;;;;;;1.23;0.60;;;15.90;99.90;;;;;;5053360;28;20426;-71
2023/09/22 10:29:34;;;;;;;6.73;0.70;;;15.80;99.90;;;;;;5053732;28;20418;-71
2023/09/22 10:32:15;;;;;;;1.03;0.53;;;15.90;99.90;;;;;;5051919;28;20422;-70
2023/09/22 10:35:10;;;;;;;1.27;0.87;;;16.00;99.90;;;;;;5053088;28;20446;-71
2023/09/22 10:37:37;;;;;;;1.60;0.67;;;16.10;99.90;;;;;;5053209;28;20420;-71
2023/09/22 10:40:15;;;;;;;1.77;0.90;;;16.30;99.90;;;;;;5053156;28;20461;-71
2023/09/22 10:42:43;;;;;;;0.87;0.50;;;16.30;99.90;;;;;;5051669;28;20419;-71
2023/09/22 10:45:09;;;;;;;1.03;0.50;;;16.20;99.90;;;;;;5052914;28;20450;-71
2023/09/22 10:47:43;;;;;;;1.23;0.57;;;16.20;99.90;;;;;;5051676;28;20906;-71
2023/09/22 10:50:17;;;;;;;0.80;0.40;;;16.20;99.90;;;;;;5052966;28;20427;-70
2023/09/22 10:53:08;;;;;;;1.30;0.67;;;16.20;99.90;;;;;;5052813;28;20450;-71
2023/09/22 10:55:42;;;;;;;1.83;0.50;;;16.10;99.90;;;;;;5050127;28;20463;-71
2023/09/22 10:58:19;;;;;;;1.53;0.70;;;16.20;99.90;;;;;;5052993;28;20783;-70
2023/09/22 11:01:04;;;;;;;2.70;0.90;;;16.30;99.90;;;;;;5051327;28;20467;-70
2023/09/22 11:03:33;;;;;;;1.80;0.70;;;16.50;99.90;;;;;;5052388;28;20906;-70
2023/09/22 11:06:06;;;;;;;1.00;0.50;;;16.80;99.90;;;;;;5052563;28;20438;-70
2023/09/22 11:08:32;;;;;;;0.83;0.50;;;16.80;99.90;;;;;;5051404;28;20549;-70
2023/09/22 11:10:57;;;;;;;2.37;0.70;;;16.70;99.90;;;;;;5052684;28;20920;-70
2023/09/22 11:13:23;;;;;;;1.10;0.50;;;16.60;99.90;;;;;;5051100;28;20442;-71
2023/09/22 11:15:50;;;;;;;2.27;0.70;;;16.60;99.90;;;;;;5052345;28;20282;-70
2023/09/22 11:18:35;;;;;;;0.80;0.50;;;16.60;99.90;;;;;;5052428;28;20190;-71
2023/09/22 11:21:08;;;;;;;0.90;0.50;;;16.70;99.90;;;;;;5050966;28;20476;-72
2023/09/22 11:23:38;;;;;;;1.27;0.70;;;16.60;99.90;;;;;;5050857;28;20936;-72
2023/09/22 11:26:07;;;;;;;0.90;0.50;;;16.40;99.90;;;;;;5051064;28;20430;-72
2023/09/22 11:28:33;;;;;;;0.70;0.40;;;16.30;99.90;;;;;;5052292;28;20444;-72
2023/09/22 11:31:16;;;;;;;0.80;0.43;;;16.20;99.90;;;;;;5052139;28;20426;-72
2023/09/22 11:33:43;;;;;;;0.80;0.60;;;16.10;99.90;;;;;;5050764;28;20455;-72
2023/09/22 11:36:10;;;;;;;1.20;0.43;;;16.20;99.90;;;;;;5052065;28;20415;-72
2023/09/22 11:38:40;;;;;;;1.13;0.60;;;16.30;99.90;;;;;;5034189;28;20436;-72
2023/09/22 11:41:10;;;;;;;1.83;0.50;;;16.10;99.90;;;;;;5051936;28;20576;-72
2023/09/22 11:43:54;;;;;;;1.00;0.40;;;16.10;99.90;;;;;;5051876;28;20911;-72
2023/09/22 11:46:25;;;;;;;4.60;0.60;;;16.30;99.90;;;;;;5050738;28;20418;-72
2023/09/22 11:49:00;;;;;;;1.57;0.53;;;16.50;99.90;;;;;;5051725;28;20468;-72
2023/09/22 11:51:41;;;;;;;1.00;0.73;;;16.40;99.90;;;;;;5051651;28;20432;-72
2023/09/22 11:54:12;;;;;;;1.43;0.60;;;16.40;99.90;;;;;;5051688;28;20476;-73
2023/09/22 11:56:38;;;;;;;1.03;0.60;;;16.30;99.90;;;;;;5051601;28;20924;-73
2023/09/22 11:59:15;;;;;;;0.80;0.50;;;16.50;99.90;;;;;;5051462;28;20467;-72
2023/09/22 12:01:41;;;;;;;1.10;0.60;;;16.50;99.90;;;;;;5051580;28;20913;-72
2023/09/22 12:04:10;;;;;;;3.90;0.50;;;16.70;99.90;;;;;;5033536;28;20864;-73
2023/09/22 12:06:37;;;;;;;0.90;0.53;;;16.60;99.90;;;;;;5033879;28;20488;-72
2023/09/22 12:09:04;;;;;;;0.80;0.50;;;16.60;99.90;;;;;;5050052;28;20452;-72
2023/09/22 12:11:30;;;;;;;5.60;0.57;;;16.60;99.90;;;;;;5051563;28;20431;-72
2023/09/22 12:13:55;;;;;;;0.80;0.47;;;16.60;99.90;;;;;;5050592;28;20445;-72
2023/09/22 12:16:21;;;;;;;1.40;0.60;;;16.70;99.90;;;;;;5050098;28;20186;-72
2023/09/22 12:18:47;;;;;;;0.80;0.40;;;16.70;99.90;;;;;;5051343;28;20268;-72
2023/09/22 12:21:13;;;;;;;2.40;0.67;;;16.70;99.90;;;;;;5051345;28;20590;-73
2023/09/22 12:23:38;;;;;;;0.87;0.50;;;16.60;99.90;;;;;;5049880;28;20432;-73
2023/09/22 12:26:05;;;;;;;1.23;0.60;;;16.40;99.90;;;;;;5051298;28;20909;-73
2023/09/22 12:28:31;;;;;;;0.90;0.70;;;16.40;99.90;;;;;;5051277;28;20206;-73
2023/09/22 12:30:56;;;;;;;1.10;0.60;;;16.60;99.90;;;;;;5050004;28;20468;-72
2023/09/22 12:33:22;;;;;;;1.70;0.70;;;16.70;99.90;;;;;;5051207;28;20197;-72
2023/09/22 12:35:48;;;;;;;2.20;0.70;;;17.00;99.90;;;;;;5051128;28;20292;-71
2023/09/22 12:38:14;;;;;;;0.93;0.70;;;17.00;99.90;;;;;;5051138;28;20648;-72
2023/09/22 12:40:40;;;;;;;1.23;0.53;;;17.10;99.90;;;;;;5049936;28;20485;-72
2023/09/22 12:43:06;;;;;;;2.10;0.60;;;17.00;99.90;;;;;;5033450;28;20674;-72
2023/09/22 12:45:31;;;;;;;0.90;0.50;;;17.10;99.90;;;;;;5051060;28;20445;-72
2023/09/22 12:47:58;;;;;;;0.80;0.60;;;16.80;99.90;;;;;;5051187;28;20205;-72
2023/09/22 12:50:23;;;;;;;1.20;0.60;;;16.90;99.90;;;;;;5051122;28;20182;-72
2023/09/22 12:52:49;;;;;;;2.80;0.60;;;17.10;99.90;;;;;;5049765;28;20437;-72